Terminal Aerodrome Forecast
Issued by NWS Pittsburgh, PA

Current Version | Previous Version | Graphics & Text | Print | Product List | Glossary On
Versions: 1 2 3 4 5 6 7 8 9 10 11 12 13 14 15 16 17 18 19 20 21 22 23 24 25 26 27 28 29 30
000
FTUS41 KPBZ 300500
TAFPIT
TAF
KPIT 300536Z 3006/3112 29012G22KT 4SM -SHSN BKN015 OVC025
      TEMPO 3006/3008 1SM -SHSN BKN008 OVC015
     FM300900 31012G22KT P6SM -SHSN OVC015
     FM301500 32013G24KT P6SM OVC020
     FM310400 31010KT P6SM SCT020=

USA.gov is the U.S. government's official web portal to all federal, state and local government web resources and services.